Welcome to Northern Hawkes Bay. New Zealand.
PWS Header
      nz Flag



Hit Counter


W3C Valid W3C Valid logo


    Wairoa

Select any of the Stations below to visit their websites.










Historic Data from Weather Underground
Select the location of interest below. Wairoa is the default. Please have patience, this Data is slow to load in.
Northern Hawkes Bay Historical Data
Daily Summary for July 1, 2017 Units:  English    Metric   Both
« Previous Day
Next Day »
Daily Weekly Monthly Yearly Custom
  High: Low: Average:
Temperature: 58.5 °F 42.3 °F 53.1 °F
Dew Point: 49.8 °F 40.1 °F 46.4 °F
Humidity: 93% 66% 78%
Wind Speed: 16.8mph 0mph 4.9mph
Wind Gust: 22.1mph - -
Wind- - SE
Pressure: 30.2 in 30 in -
Precipitation: 0 in    
Historical Graphs
 
 
Tabular Data for July 1, 2017
Time Temperature Dew Point Pressure Wind Wind Speed Wind Gust Humidity Rainfall Rate (Hourly) solar
00:01 43.2 °F 40.5 °F 30.2 in North 2.2 mph 4.5 mph 90% 0 in 0 W/m2
00:06 42.8 °F 40.1 °F 30.2 in North 2.2 mph 4.5 mph 90% 0 in 0 W/m2
00:11 42.3 °F 40.1 °F 30.2 in North 1.6 mph 3.8 mph 92% 0 in 0 W/m2
00:16 42.4 °F 40.3 °F 30.2 in North 1.6 mph 3.8 mph 92% 0 in 0 W/m2
00:21 42.6 °F 40.6 °F 30.2 in NNW 3.1 mph 4.5 mph 93% 0 in 0 W/m2
00:26 42.8 °F 40.6 °F 30.2 in NW 3.1 mph 4.5 mph 92% 0 in 0 W/m2
00:31 43.5 °F 41.5 °F 30.2 in NW 3.8 mph 6 mph 93% 0 in 0 W/m2
00:36 43.3 °F 41.2 °F 30.2 in NW 3.8 mph 6 mph 92% 0 in 0 W/m2
00:41 43.9 °F 41.7 °F 30.2 in NNW 2.2 mph 6 mph 92% 0 in 0 W/m2
00:46 43.9 °F 41.4 °F 30.2 in NNW 1.6 mph 6 mph 91% 0 in 0 W/m2
00:51 44.1 °F 41.5 °F 30.2 in North 1.6 mph 6 mph 91% 0 in 0 W/m2
00:56 43.7 °F 41 °F 30.2 in NNW 1.6 mph 6 mph 90% 0 in 0 W/m2
01:01 43.7 °F 41 °F 30.2 in NW 2.2 mph 3.8 mph 90% 0 in 0 W/m2
01:06 43.7 °F 41 °F 30.2 in NW 2.2 mph 5.4 mph 90% 0 in 0 W/m2
01:11 43 °F 40.3 °F 30.2 in NNW 3.1 mph 5.4 mph 90% 0 in 0 W/m2
01:15 43.5 °F 40.8 °F 30.2 in NNW 1.6 mph 3.8 mph 90% 0 in 0 W/m2
01:21 43.5 °F 40.8 °F 30.2 in NNW 1.6 mph 3.8 mph 90% 0 in 0 W/m2
01:26 43.5 °F 40.8 °F 30.2 in NNW 2.2 mph 3.8 mph 90% 0 in 0 W/m2
01:31 43.3 °F 40.6 °F 30.2 in NNW 2.2 mph 3.8 mph 90% 0 in 0 W/m2
01:35 43.3 °F 40.6 °F 30.2 in NNW 3.1 mph 5.4 mph 90% 0 in 0 W/m2
01:40 43.7 °F 41.2 °F 30.2 in NNW 4.5 mph 6 mph 91% 0 in 0 W/m2
01:46 44.1 °F 41.5 °F 30.2 in NNW 3.8 mph 7.6 mph 91% 0 in 0 W/m2
01:51 45 °F 42.3 °F 30.2 in NNW 3.8 mph 7.6 mph 90% 0 in 0 W/m2
01:55 44.4 °F 41.7 °F 30.2 in NNW 3.1 mph 6.9 mph 90% 0 in 0 W/m2
02:01 44.2 °F 41.5 °F 30.2 in NW 2.2 mph 6 mph 90% 0 in 0 W/m2
02:06 44.2 °F 41.5 °F 30.2 in NW 2.2 mph 5.4 mph 90% 0 in 0 W/m2
02:11 43.7 °F 41 °F 30.2 in NNW 3.8 mph 5.4 mph 90% 0 in 0 W/m2
02:15 44.6 °F 41.5 °F 30.2 in North 2.2 mph 7.6 mph 89% 0 in 0 W/m2
02:20 45.7 °F 43 °F 30.2 in North 3.1 mph 7.6 mph 90% 0 in 0 W/m2
02:26 47.1 °F 43.9 °F 30.2 in North 4.5 mph 8.3 mph 88% 0 in 0 W/m2
02:31 47.7 °F 43.7 °F 30.2 in NNW 3.8 mph 8.3 mph 86% 0 in 0 W/m2
02:35 47.1 °F 42.8 °F 30.2 in NNW 3.8 mph 8.3 mph 85% 0 in 0 W/m2
02:41 46.2 °F 41.7 °F 30.2 in NW 3.8 mph 6.9 mph 84% 0 in 0 W/m2
02:45 46 °F 41.7 °F 30.2 in NW 3.1 mph 6.9 mph 85% 0 in 0 W/m2
02:50 46.4 °F 42.4 °F 30.2 in NNW 2.2 mph 6.9 mph 86% 0 in 0 W/m2
02:56 46.4 °F 42.6 °F 30.2 in NNW 3.8 mph 5.4 mph 87% 0 in 0 W/m2
03:01 46.8 °F 43.2 °F 30.2 in NNW 3.1 mph 5.4 mph 87% 0 in 0 W/m2
03:06 47.1 °F 43.2 °F 30.2 in North 2.2 mph 6 mph 86% 0 in 0 W/m2
03:10 47.3 °F 43.3 °F 30.2 in North 1.6 mph 6 mph 86% 0 in 0 W/m2
03:16 47.5 °F 43.5 °F 30.2 in North 2.2 mph 6.9 mph 86% 0 in 0 W/m2
03:21 47.7 °F 43.7 °F 30.2 in North 2.2 mph 6.9 mph 86% 0 in 0 W/m2
03:25 47.7 °F 43.3 °F 30.2 in NNW 3.1 mph 4.5 mph 85% 0 in 0 W/m2
03:30 47.1 °F 42.8 °F 30.2 in NW 2.2 mph 5.4 mph 85% 0 in 0 W/m2
03:35 47.3 °F 43 °F 30.2 in NW 4.5 mph 6 mph 85% 0 in 0 W/m2
03:41 47.3 °F 43.3 °F 30.2 in NNW 3.8 mph 6 mph 86% 0 in 0 W/m2
03:46 48 °F 44.1 °F 30.2 in North 1.6 mph 9.2 mph 86% 0 in 0 W/m2
03:51 49.3 °F 44.8 °F 30.2 in North 3.8 mph 9.2 mph 84% 0 in 0 W/m2
03:55 48.9 °F 44.1 °F 30.2 in NNE 3.1 mph 7.6 mph 83% 0 in 0 W/m2
04:00 49.5 °F 43.9 °F 30.2 in NNE 3.1 mph 7.6 mph 81% 0 in 0 W/m2
04:06 49.6 °F 43.7 °F 30.2 in North 1.6 mph 7.6 mph 80% 0 in 0 W/m2
04:11 49.3 °F 43.3 °F 30.2 in North 0.7 mph 3.8 mph 80% 0 in 0 W/m2
04:15 48.9 °F 43 °F 30.2 in WNW 2.2 mph 3.8 mph 80% 0 in 0 W/m2
04:22 47.7 °F 42.8 °F 30.2 in West 0.7 mph 3.1 mph 83% 0 in 0 W/m2
04:26 47.5 °F 43 °F 30.2 in WNW 1.6 mph 3.1 mph 84% 0 in 0 W/m2
04:31 47.3 °F 43 °F 30.2 in NNW 3.1 mph 3.8 mph 85% 0 in 0 W/m2
04:37 47.3 °F 43 °F 30.2 in NNW 2.2 mph 3.8 mph 85% 0 in 0 W/m2
04:42 47.3 °F 43 °F 30.1 in NNW 1.6 mph 4.5 mph 85% 0 in 0 W/m2
04:46 46.9 °F 43 °F 30.1 in NNW 0.7 mph 4.5 mph 86% 0 in 0 W/m2
04:52 46.9 °F 43 °F 30.1 in NW 2.2 mph 3.8 mph 86% 0 in 0 W/m2
04:56 46.6 °F 42.6 °F 30.1 in NW 1.6 mph 3.8 mph 86% 0 in 0 W/m2
05:02 46.4 °F 42.4 °F 30.1 in NW 1.6 mph 3.1 mph 86% 0 in 0 W/m2
05:06 46.4 °F 42.6 °F 30.1 in WNW 2.2 mph 3.1 mph 87% 0 in 0 W/m2
05:11 46.4 °F 42.6 °F 30.1 in NW 2.2 mph 3.1 mph 87% 0 in 0 W/m2
05:16 46.2 °F 42.3 °F 30.1 in NW 3.1 mph 4.5 mph 86% 0 in 0 W/m2
05:22 46 °F 42.4 °F 30.1 in NW 3.1 mph 4.5 mph 87% 0 in 0 W/m2
05:27 46 °F 42.4 °F 30.1 in NW 1.6 mph 4.5 mph 87% 0 in 0 W/m2
05:31 45.7 °F 42.1 °F 30.1 in NNW 2.2 mph 4.5 mph 87% 0 in 0 W/m2
05:36 45.3 °F 41.7 °F 30.1 in North 0.7 mph 3.8 mph 87% 0 in 0 W/m2
05:41 45 °F 41.5 °F 30.1 in North 2.2 mph 3.8 mph 88% 0 in 0 W/m2
05:46 45.3 °F 42.3 °F 30.1 in North 3.1 mph 3.8 mph 89% 0 in 0 W/m2
05:51 45 °F 41.9 °F 30.1 in NNW 1.6 mph 3.8 mph 89% 0 in 0 W/m2
05:56 45 °F 42.3 °F 30.1 in Calm   3.8 mph 90% 0 in 0 W/m2
06:01 44.6 °F 41.9 °F 30.1 in NNE 0.7 mph 2.2 mph 90% 0 in 0 W/m2
06:07 44.6 °F 41.9 °F 30.1 in West 1.6 mph 2.2 mph 90% 0 in 0 W/m2
06:12 44.1 °F 41.5 °F 30.1 in Calm   2.2 mph 91% 0 in 0 W/m2
06:16 43.9 °F 41.4 °F 30.1 in West 3.1 mph 3.8 mph 91% 0 in 0 W/m2
06:21 43.7 °F 41.2 °F 30.1 in West 1.6 mph 3.8 mph 91% 0 in 0 W/m2
06:26 44.6 °F 42.1 °F 30.1 in WNW 0.7 mph 3.1 mph 91% 0 in 0 W/m2
06:32 44.4 °F 42.3 °F 30.1 in Calm   3.1 mph 92% 0 in 0 W/m2
06:37 44.1 °F 41.9 °F 30.1 in NE 0.7 mph 2.2 mph 92% 0 in 0 W/m2
06:42 44.2 °F 42.1 °F 30.1 in NE 0.7 mph 2.2 mph 92% 0 in 0 W/m2
06:47 44.1 °F 42.3 °F 30.1 in Calm   2.2 mph 93% 0 in 0 W/m2
06:52 44.2 °F 42.3 °F 30.1 in NNE 0.7 mph 2.2 mph 93% 0 in 0 W/m2
06:58 44.1 °F 42.3 °F 30.1 in WNW 0.7 mph 2.2 mph 93% 0 in 0 W/m2
07:03 43.9 °F 42.1 °F 30.1 in West 1.6 mph 3.1 mph 93% 0 in 0 W/m2
07:07 44.6 °F 42.4 °F 30.1 in NW 3.8 mph 4.5 mph 92% 0 in 0 W/m2
07:12 45.3 °F 43.3 °F 30.1 in NW 2.2 mph 4.5 mph 93% 0 in 0 W/m2
07:17 46.4 °F 44.2 °F 30.1 in NNW 0.7 mph 4.5 mph 92% 0 in 0 W/m2
07:22 46.8 °F 44.2 °F 30.1 in North 0.7 mph 3.8 mph 91% 0 in 0 W/m2
07:27 48.4 °F 45.7 °F 30.1 in North 0.7 mph 4.5 mph 90% 0 in 0 W/m2
07:32 48.6 °F 45.1 °F 30.1 in North 1.6 mph 4.5 mph 88% 0 in 0 W/m2
07:37 47.8 °F 44.2 °F 30.1 in NNW 1.6 mph 3.8 mph 87% 0 in 0 W/m2
07:42 47.8 °F 44.2 °F 30.1 in NNW 3.1 mph 3.8 mph 87% 0 in 0 W/m2
07:47 47.1 °F 43.5 °F 30.1 in NNW 3.1 mph 3.8 mph 87% 0 in 1 W/m2
07:52 46.9 °F 43.3 °F 30.1 in NNW 3.1 mph 3.8 mph 87% 0 in 3 W/m2
07:57 47.1 °F 43.9 °F 30.1 in NNW 1.6 mph 3.8 mph 88% 0 in 6 W/m2
08:02 46.8 °F 43.3 °F 30.1 in Calm   3.8 mph 88% 0 in 10 W/m2
08:07 47.5 °F 44.1 °F 30.1 in NE 0.7 mph 2.2 mph 88% 0 in 15 W/m2
08:12 48 °F 44.6 °F 30.1 in ESE 1.6 mph 3.1 mph 88% 0 in 16 W/m2
08:17 47.5 °F 44.1 °F 30.1 in SSW 2.2 mph 3.1 mph 88% 0 in 18 W/m2
08:22 47.7 °F 44.6 °F 30.1 in SW 0.7 mph 3.1 mph 89% 0 in 21 W/m2
08:27 48.4 °F 45 °F 30.1 in NNW 3.1 mph 4.5 mph 88% 0 in 23 W/m2
08:32 50.7 °F 46.8 °F 30.1 in North 3.8 mph 8.3 mph 86% 0 in 23 W/m2
08:37 52 °F 46.2 °F 30.1 in North 4.5 mph 8.3 mph 81% 0 in 27 W/m2
08:43 52.7 °F 45.3 °F 30.1 in North 5.4 mph 9.8 mph 76% 0 in 36 W/m2
08:47 53.6 °F 45.1 °F 30.1 in North 5.4 mph 9.8 mph 73% 0 in 40 W/m2
08:52 53.8 °F 45.3 °F 30.1 in NNE 8.3 mph 13 mph 73% 0 in 38 W/m2
08:57 54.3 °F 45.5 °F 30.1 in North 5.4 mph 13 mph 72% 0 in 31 W/m2
09:02 55 °F 46.2 °F 30.1 in North 4.5 mph 12.1 mph 72% 0 in 37 W/m2
09:07 54.3 °F 45.5 °F 30.1 in North 6.9 mph 9.2 mph 72% 0 in 43 W/m2
09:12 54.5 °F 45.7 °F 30.2 in North 6 mph 9.2 mph 72% 0 in 42 W/m2
09:17 54.7 °F 45.9 °F 30.1 in NNW 6 mph 10.7 mph 72% 0 in 39 W/m2
09:22 54.9 °F 45.7 °F 30.1 in NNW 3.8 mph 10.7 mph 71% 0 in 38 W/m2
09:27 54.9 °F 45.7 °F 30.1 in NNW 4.5 mph 9.2 mph 71% 0 in 39 W/m2
09:32 55 °F 45.9 °F 30.1 in North 7.6 mph 9.8 mph 71% 0 in 35 W/m2
09:37 55 °F 45.9 °F 30.1 in NNE 6 mph 12.1 mph 71% 0 in 30 W/m2
09:42 54.3 °F 45.1 °F 30.1 in NNE 4.5 mph 12.1 mph 71% 0 in 33 W/m2
09:47 55 °F 46.2 °F 30.1 in NNE 4.5 mph 9.8 mph 72% 0 in 38 W/m2
09:52 55 °F 46.2 °F 30.1 in NNE 3.8 mph 7.6 mph 72% 0 in 41 W/m2
09:57 55.2 °F 46.8 °F 30.1 in North 5.4 mph 9.2 mph 73% 0 in 41 W/m2
10:02 55.6 °F 47.1 °F 30.1 in North 4.5 mph 12.1 mph 73% 0 in 43 W/m2
10:07 55.4 °F 46.9 °F 30.1 in North 4.5 mph 12.1 mph 73% 0 in 44 W/m2
10:12 55.6 °F 47.1 °F 30.1 in North 5.4 mph 11.4 mph 73% 0 in 48 W/m2
10:17 55.8 °F 47.1 °F 30.1 in North 6 mph 11.4 mph 73% 0 in 46 W/m2
10:22 55.4 °F 46.9 °F 30.1 in North 5.4 mph 10.7 mph 73% 0 in 44 W/m2
10:27 55.9 °F 47.5 °F 30.1 in North 5.4 mph 9.8 mph 73% 0 in 44 W/m2
10:32 56.3 °F 47.8 °F 30.1 in North 6.9 mph 13 mph 73% 0 in 50 W/m2
10:37 56.5 °F 47.8 °F 30.1 in NNW 6.9 mph 13 mph 73% 0 in 57 W/m2
10:42 56.8 °F 48.4 °F 30.1 in NNW 9.8 mph 15.2 mph 73% 0 in 58 W/m2
10:47 56.8 °F 47.8 °F 30.1 in North 7.6 mph 15.9 mph 72% 0 in 61 W/m2
10:52 57 °F 48.6 °F 30.1 in NNE 8.3 mph 15.9 mph 73% 0 in 57 W/m2
10:57 57.2 °F 47.5 °F 30.1 in NNE 4.5 mph 19.7 mph 70% 0 in 58 W/m2
11:02 57.4 °F 48 °F 30.1 in NE 6 mph 19.7 mph 71% 0 in 66 W/m2
11:07 57.2 °F 47.5 °F 30.1 in NNE 5.4 mph 9.8 mph 70% 0 in 60 W/m2
11:12 57 °F 47.7 °F 30.1 in NNE 6 mph 10.7 mph 71% 0 in 56 W/m2
11:17 57 °F 47.7 °F 30.1 in North 12.1 mph 17.4 mph 71% 0 in 49 W/m2
11:22 56.7 °F 46.9 °F 30.1 in NNE 12.1 mph 19 mph 70% 0 in 37 W/m2
11:27 57 °F 47.3 °F 30.1 in NNE 9.2 mph 19 mph 70% 0 in 30 W/m2
11:32 57 °F 47.7 °F 30.1 in North 6 mph 15.2 mph 71% 0 in 31 W/m2
11:37 56.5 °F 47.1 °F 30.1 in North 9.2 mph 19 mph 71% 0 in 26 W/m2
11:42 56.3 °F 46.9 °F 30.1 in North 6.9 mph 19 mph 71% 0 in 21 W/m2
11:47 56.7 °F 47.5 °F 30.1 in North 10.7 mph 19.7 mph 71% 0 in 20 W/m2
11:52 56.7 °F 47.5 °F 30.1 in North 6 mph 19.7 mph 71% 0 in 20 W/m2
11:57 56.7 °F 47.5 °F 30.1 in NNE 7.6 mph 15.9 mph 71% 0 in 22 W/m2
12:02 56.3 °F 47.5 °F 30.1 in North 13.6 mph 18.3 mph 72% 0 in 26 W/m2
12:07 56.3 °F 48 °F 30.1 in North 6.9 mph 18.3 mph 74% 0 in 36 W/m2
12:12 56.1 °F 48.4 °F 30.1 in North 6 mph 18.3 mph 75% 0 in 34 W/m2
12:17 56.1 °F 48.4 °F 30.1 in North 3.8 mph 9.8 mph 75% 0 in 32 W/m2
12:22 55.8 °F 48 °F 30.1 in NNE 4.5 mph 9.2 mph 75% 0 in 37 W/m2
12:27 56.1 °F 48.4 °F 30.1 in NE 3.8 mph 9.2 mph 75% 0 in 44 W/m2
12:32 56.3 °F 48 °F 30.1 in NNE 6 mph 9.8 mph 74% 0 in 43 W/m2
12:37 56.5 °F 48.4 °F 30.1 in NNE 3.8 mph 9.8 mph 74% 0 in 37 W/m2
12:42 56.5 °F 48.4 °F 30.1 in NNE 8.3 mph 11.4 mph 74% 0 in 31 W/m2
12:47 56.7 °F 47.7 °F 30.1 in NE 6 mph 11.4 mph 72% 0 in 32 W/m2
12:52 56.7 °F 48 °F 30.1 in NE 7.6 mph 11.4 mph 73% 0 in 34 W/m2
12:57 56.7 °F 47.7 °F 30.1 in NNE 6.9 mph 12.1 mph 72% 0 in 34 W/m2
13:02 56.8 °F 47.8 °F 30.1 in NNE 4.5 mph 12.1 mph 72% 0 in 37 W/m2
13:07 56.7 °F 47.7 °F 30.1 in NNE 3.8 mph 11.4 mph 72% 0 in 33 W/m2
13:12 56.7 °F 48 °F 30.1 in NNE 3.1 mph 10.7 mph 73% 0 in 37 W/m2
13:17 56.7 °F 48 °F 30.1 in NE 4.5 mph 7.6 mph 73% 0 in 48 W/m2
13:22 56.8 °F 48.4 °F 30.1 in NE 6.9 mph 15.2 mph 73% 0 in 48 W/m2
13:27 57 °F 48.6 °F 30 in NNE 6 mph 15.2 mph 73% 0 in 44 W/m2
13:32 57 °F 48 °F 30.1 in NNE 3.8 mph 11.4 mph 72% 0 in 39 W/m2
13:37 57 °F 48.6 °F 30 in NE 6.9 mph 12.1 mph 73% 0 in 32 W/m2
13:42 57.2 °F 48.4 °F 30 in NE 6.9 mph 13 mph 72% 0 in 27 W/m2
13:47 57.2 °F 48.4 °F 30 in NE 6.9 mph 13 mph 72% 0 in 26 W/m2
13:52 57.2 °F 48.4 °F 30 in NNE 6.9 mph 12.1 mph 72% 0 in 28 W/m2
13:57 57.4 °F 48.4 °F 30 in NE 7.6 mph 13 mph 72% 0 in 31 W/m2
14:02 57.4 °F 48.4 °F 30 in NE 3.1 mph 13 mph 72% 0 in 32 W/m2
14:07 57.4 °F 48.4 °F 30 in NE 4.5 mph 11.4 mph 72% 0 in 30 W/m2
14:12 57.4 °F 48.4 °F 30 in ENE 3.8 mph 11.4 mph 72% 0 in 26 W/m2
14:17 57.4 °F 48.7 °F 30 in NE 5.4 mph 11.4 mph 73% 0 in 27 W/m2
14:22 57.4 °F 48.7 °F 30 in NE 5.4 mph 11.4 mph 73% 0 in 28 W/m2
14:27 57 °F 49.3 °F 30 in NE 5.4 mph 10.7 mph 75% 0 in 30 W/m2
14:32 56.5 °F 48.9 °F 30 in ENE 6.9 mph 9.8 mph 76% 0 in 35 W/m2
14:37 56.1 °F 48.9 °F 30 in ENE 5.4 mph 9.8 mph 77% 0 in 37 W/m2
14:42 55.9 °F 49.3 °F 30 in ENE 4.5 mph 9.8 mph 78% 0 in 36 W/m2
14:47 55.9 °F 49.3 °F 30 in ENE 5.4 mph 9.8 mph 78% 0 in 35 W/m2
14:52 56.1 °F 49.5 °F 30 in ENE 5.4 mph 9.8 mph 78% 0 in 32 W/m2
14:57 56.3 °F 49.3 °F 30 in ENE 4.5 mph 9.8 mph 77% 0 in 35 W/m2
15:02 56.5 °F 49.5 °F 30 in ENE 4.5 mph 9.8 mph 77% 0 in 43 W/m2
15:07 56.5 °F 49.5 °F 30 in ENE 6 mph 8.3 mph 77% 0 in 56 W/m2
15:12 56.3 °F 49.3 °F 30 in ENE 7.6 mph 9.8 mph 77% 0 in 46 W/m2
15:17 56.5 °F 49.5 °F 30 in ENE 6.9 mph 9.8 mph 77% 0 in 32 W/m2
15:22 56.7 °F 49.5 °F 30 in ENE 7.6 mph 12.1 mph 77% 0 in 25 W/m2
15:27 56.5 °F 49.5 °F 30 in NE 5.4 mph 12.1 mph 77% 0 in 24 W/m2
15:32 56.5 °F 49.5 °F 30 in NE 6 mph 12.1 mph 77% 0 in 13 W/m2
15:37 56.7 °F 49.5 °F 30 in ENE 3.8 mph 9.2 mph 77% 0 in 18 W/m2
15:42 56.7 °F 49.5 °F 30 in ENE 6 mph 9.2 mph 77% 0 in 20 W/m2
15:47 56.7 °F 49.3 °F 30 in East 5.4 mph 9.8 mph 76% 0 in 16 W/m2
15:52 56.7 °F 49.5 °F 30 in East 5.4 mph 9.8 mph 77% 0 in 12 W/m2
15:57 56.3 °F 49.3 °F 30 in ENE 4.5 mph 9.2 mph 77% 0 in 11 W/m2
16:02 56.3 °F 49.5 °F 30 in ENE 7.6 mph 11.4 mph 78% 0 in 8 W/m2
16:07 56.7 °F 49.5 °F 30 in NE 7.6 mph 13.6 mph 77% 0 in 5 W/m2
16:12 57 °F 49.5 °F 30 in NE 6.9 mph 13.6 mph 76% 0 in 3 W/m2
16:17 57 °F 49.5 °F 30 in NE 9.8 mph 11.4 mph 76% 0 in 3 W/m2
16:22 57 °F 49.5 °F 30 in NE 7.6 mph 14.5 mph 76% 0 in 2 W/m2
16:23 57.4 °F 49.5 °F 30 in NE 6 mph 14.5 mph 75% 0 in 2 W/m2
16:28 57.6 °F 49.3 °F 30 in NE 4.5 mph 14.5 mph 74% 0 in 1 W/m2
16:33 57.4 °F 49.3 °F 30 in NE 6.9 mph 10.7 mph 74% 0 in 1 W/m2
16:38 57.7 °F 49.5 °F 30 in NE 5.4 mph 12.1 mph 74% 0 in 1 W/m2
16:43 57.7 °F 49.5 °F 30 in NE 6 mph 12.1 mph 74% 0 in 0 W/m2
16:48 57.7 °F 49.5 °F 30 in NNE 4.5 mph 12.1 mph 74% 0 in 0 W/m2
16:53 57.7 °F 49.5 °F 30 in NE 5.4 mph 12.1 mph 74% 0 in 0 W/m2
16:58 57.7 °F 49.5 °F 30 in NNE 6 mph 11.4 mph 74% 0 in 0 W/m2
17:03 57.9 °F 49.3 °F 30 in NE 7.6 mph 16.8 mph 73% 0 in 0 W/m2
17:08 57.9 °F 49.3 °F 30 in NE 6 mph 16.8 mph 73% 0 in 0 W/m2
17:13 57.9 °F 49.3 °F 30 in NNE 10.7 mph 13 mph 73% 0 in 0 W/m2
17:18 57.9 °F 48.9 °F 30 in NE 11.4 mph 18.3 mph 72% 0 in 0 W/m2
17:23 58.1 °F 49.1 °F 30 in NE 7.6 mph 18.3 mph 72% 0 in 0 W/m2
17:28 58.1 °F 49.1 °F 30 in NE 9.2 mph 18.3 mph 72% 0 in 0 W/m2
17:33 57.9 °F 48.9 °F 30 in ENE 11.4 mph 15.9 mph 72% 0 in 0 W/m2
17:38 58.3 °F 49.3 °F 30 in NE 5.4 mph 18.3 mph 72% 0 in 0 W/m2
17:43 58.3 °F 49.3 °F 30 in NE 6 mph 18.3 mph 72% 0 in 0 W/m2
17:48 58.1 °F 49.1 °F 30 in NNE 7.6 mph 13.6 mph 72% 0 in 0 W/m2
17:53 58.3 °F 49.3 °F 30 in NE 6 mph 13 mph 72% 0 in 0 W/m2
17:58 58.3 °F 49.3 °F 30 in NE 5.4 mph 14.5 mph 72% 0 in 0 W/m2
18:03 58.3 °F 49.3 °F 30 in NE 6.9 mph 14.5 mph 72% 0 in 0 W/m2
18:08 58.3 °F 49.3 °F 30 in NE 5.4 mph 13.6 mph 72% 0 in 0 W/m2
18:14 58.1 °F 49.1 °F 30 in NE 4.5 mph 13.6 mph 72% 0 in 0 W/m2
18:20 58.3 °F 49.3 °F 30 in NE 9.2 mph 13.6 mph 72% 0 in 0 W/m2
18:25 58.3 °F 49.3 °F 30 in ENE 16.8 mph 22.1 mph 72% 0 in 0 W/m2
18:30 58.3 °F 49.3 °F 30 in NE 4.5 mph 22.1 mph 72% 0 in 0 W/m2
18:35 58.1 °F 49.1 °F 30 in NE 5.4 mph 12.1 mph 72% 0 in 0 W/m2
18:40 58.1 °F 49.5 °F 30 in NE 4.5 mph 12.1 mph 73% 0 in 0 W/m2
18:45 58.1 °F 49.5 °F 30 in NE 5.4 mph 16.8 mph 73% 0 in 0 W/m2
18:50 58.1 °F 49.5 °F 30 in NNE 5.4 mph 16.8 mph 73% 0 in 0 W/m2
18:55 58.3 °F 49.3 °F 30 in NNE 8.3 mph 13.6 mph 72% 0 in 0 W/m2
19:00 58.3 °F 49.3 °F 30 in NNE 8.3 mph 13.6 mph 72% 0 in 0 W/m2
19:05 58.5 °F 49.5 °F 30 in NE 7.6 mph 13.6 mph 72% 0 in 0 W/m2
19:10 58.3 °F 49.3 °F 30 in NNE 6 mph 13.6 mph 72% 0 in 0 W/m2
19:15 58.5 °F 49.5 °F 30 in NNE 8.3 mph 21.3 mph 72% 0 in 0 W/m2
19:20 58.5 °F 49.5 °F 30 in NE 6 mph 21.3 mph 72% 0 in 0 W/m2
19:25 58.5 °F 49.1 °F 30 in NE 4.5 mph 16.8 mph 71% 0 in 0 W/m2
19:30 58.3 °F 49.3 °F 30 in NE 6 mph 16.8 mph 72% 0 in 0 W/m2
19:35 58.5 °F 49.5 °F 30 in NE 7.6 mph 15.9 mph 72% 0 in 0 W/m2
19:40 58.5 °F 49.5 °F 30 in NNE 9.8 mph 16.8 mph 72% 0 in 0 W/m2
19:45 58.3 °F 49.6 °F 30 in NNE 3.8 mph 16.8 mph 73% 0 in 0 W/m2
19:50 58.1 °F 49.5 °F 30 in NE 7.6 mph 15.9 mph 73% 0 in 0 W/m2
19:55 58.1 °F 49.8 °F 30 in NE 9.2 mph 15.9 mph 74% 0 in 0 W/m2
20:00 58.1 °F 49.8 °F 30 in NE 6.9 mph 17.4 mph 74% 0 in 0 W/m2
20:05 57.9 °F 49.6 °F 30 in NE 9.8 mph 17.4 mph 74% 0 in 0 W/m2
20:10 57.9 °F 49.6 °F 30 in North 8.3 mph 17.4 mph 74% 0 in 0 W/m2
20:15 57.7 °F 49.5 °F 30 in NNE 12.1 mph 17.4 mph 74% 0 in 0 W/m2
20:20 57.9 °F 49.6 °F 30 in NE 5.4 mph 16.8 mph 74% 0 in 0 W/m2
20:25 57.7 °F 49.5 °F 30 in NE 9.2 mph 16.8 mph 74% 0 in 0 W/m2
20:30 57.9 °F 49.6 °F 30 in NE 7.6 mph 19 mph 74% 0 in 0 W/m2
20:35 57.9 °F 49.3 °F 30 in NNE 9.2 mph 19 mph 73% 0 in 0 W/m2
20:40 57.9 °F 49.3 °F 30 in NE 6.9 mph 15.9 mph 73% 0 in 0 W/m2
20:45 57.7 °F 49.3 °F 30 in NE 9.8 mph 15.2 mph 73% 0 in 0 W/m2
20:50 57.9 °F 49.3 °F 30 in NE 6.9 mph 15.9 mph 73% 0 in 0 W/m2
20:55 57.9 °F 49.3 °F 30 in ENE 7.6 mph 15.9 mph 73% 0 in 0 W/m2
21:00 58.1 °F 49.1 °F 30 in ENE 7.6 mph 15.9 mph 72% 0 in 0 W/m2
21:05 57.9 °F 49.3 °F 30 in NE 5.4 mph 15.9 mph 73% 0 in 0 W/m2
21:10 57.9 °F 48.9 °F 30 in NE 4.5 mph 15.2 mph 72% 0 in 0 W/m2
21:15 57.9 °F 48.9 °F 30 in NE 6 mph 15.2 mph 72% 0 in 0 W/m2
21:20 57.9 °F 48.9 °F 30 in NE 8.3 mph 20.6 mph 72% 0 in 0 W/m2
21:25 57.9 °F 48.9 °F 30 in NE 4.5 mph 20.6 mph 72% 0 in 0 W/m2
21:30 57.9 °F 48.9 °F 30 in NE 3.8 mph 14.5 mph 72% 0 in 0 W/m2
21:35 57.7 °F 49.3 °F 30 in NE 4.5 mph 13.6 mph 73% 0 in 0 W/m2
21:40 57.7 °F 49.3 °F 30 in NNE 5.4 mph 13.6 mph 73% 0 in 0 W/m2
21:45 58.1 °F 49.1 °F 30 in NNE 6.9 mph 13 mph 72% 0 in 0 W/m2
21:50 57.9 °F 48.9 °F 30 in NE 6 mph 12.1 mph 72% 0 in 0 W/m2
21:55 57.9 °F 48.9 °F 30 in NE 6 mph 11.4 mph 72% 0 in 0 W/m2
22:00 58.1 °F 49.1 °F 30 in NE 3.8 mph 11.4 mph 72% 0 in 0 W/m2
22:05 57.9 °F 48.9 °F 30 in ENE 6 mph 10.7 mph 72% 0 in 0 W/m2
22:10 57.9 °F 48.9 °F 30 in NE 7.6 mph 12.1 mph 72% 0 in 0 W/m2
22:15 58.1 °F 49.1 °F 30 in NE 6 mph 12.1 mph 72% 0 in 0 W/m2
22:20 58.1 °F 49.1 °F 30 in NE 7.6 mph 12.1 mph 72% 0 in 0 W/m2
22:25 57.9 °F 48.9 °F 30 in NE 6 mph 10.7 mph 72% 0 in 0 W/m2
22:30 57.9 °F 48.9 °F 30 in NE 7.6 mph 13.6 mph 72% 0 in 0 W/m2
22:35 57.9 °F 48.9 °F 30 in ENE 9.2 mph 13.6 mph 72% 0 in 0 W/m2
22:40 58.1 °F 48.7 °F 30 in NE 4.5 mph 12.1 mph 71% 0 in 0 W/m2
22:45 57.9 °F 48.6 °F 30 in ENE 4.5 mph 11.4 mph 71% 0 in 0 W/m2
22:50 57.9 °F 48.6 °F 30 in NE 6.9 mph 9.8 mph 71% 0 in 0 W/m2
22:55 57.9 °F 48.6 °F 30 in NE 6 mph 9.8 mph 71% 0 in 0 W/m2
23:00 57.9 °F 48.6 °F 30 in NE 4.5 mph 9.8 mph 71% 0 in 0 W/m2
23:05 57.7 °F 48 °F 30 in NE 3.8 mph 10.7 mph 70% 0 in 0 W/m2
23:10 57.9 °F 47.8 °F 30 in NE 5.4 mph 10.7 mph 69% 0 in 0 W/m2
23:15 57.9 °F 47.8 °F 30 in ENE 8.3 mph 11.4 mph 69% 0 in 0 W/m2
23:20 57.9 °F 47.5 °F 30 in ENE 6 mph 11.4 mph 68% 0 in 0 W/m2
23:25 58.1 °F 47.7 °F 30 in ENE 5.4 mph 11.4 mph 68% 0 in 0 W/m2
23:30 58.1 °F 47.7 °F 30 in ENE 4.5 mph 13.6 mph 68% 0 in 0 W/m2
23:35 58.1 °F 47.1 °F 30 in ENE 4.5 mph 13.6 mph 67% 0 in 0 W/m2
23:40 58.1 °F 47.1 °F 30 in ENE 9.2 mph 15.2 mph 67% 0 in 0 W/m2
23:45 58.3 °F 46.9 °F 30 in NE 9.2 mph 15.2 mph 66% 0 in 0 W/m2
23:50 58.5 °F 47.1 °F 30 in NE 5.4 mph 15.2 mph 66% 0 in 0 W/m2
23:55 58.3 °F 46.9 °F 30 in NE 7.6 mph 15.2 mph 66% 0 in 0 W/m2
Northern Hawkes Bay. New Zealand Historic Data
Compliments of Weather Underground - 2 mb